ADDS METAR Data INFO
IDs: Format: Raw Decoded Include TAF

Data at: 0507 UTC 23 May 2017

KCNW 230355Z 00000KT 10SM SKC 18/17 A2995
KCNW 230255Z 07004KT 10SM SKC 19/17 A2993
KCNW 230155Z 08003KT 10SM SKC 20/18 A2992
KCNW 230055Z 08004KT 10SM SKC 23/18 A2990
KCNW 222355Z 08004KT 10SM SKC 24/17 A2991
KCNW 222255Z 07004KT 10SM SCT038 25/17 A2992
KCNW 222155Z 08004KT 10SM BKN038 24/17 A2993
KCNW 222055Z 09007KT 10SM BKN022 24/18 A2995
KCNW 221955Z 06005KT 10SM BKN017 24/18 A2997
KCNW 221855Z 09007KT 7SM OVC015 23/18 A3001
KCNW 221455Z 03005KT 10SM OVC090 18/17 A3007
KCNW 221255Z 06005KT 7SM OVC060 17/15 A3004
KCNW 220355Z 03010KT 7SM RA SCT022 OVC039 16/15 A3010
KCNW 220255Z 27004KT 7SM VCTSRA OVC013 17/15 A3016
KCNW 220155Z 22010KT 5SM TSRA OVC018 17/15 A3014
KCNW 220055Z 03003KT 10SM OVC120 18/15 A3007
KCNW 212355Z 06006KT 4SM -RA BKN019 17/15 A3006
KCNW 212330Z 07006KT 2SM VCTSRA OVC047 19/14 A3008
KCNW 212255Z 08004KT 10SM OVC045 21/12 A3010
KCNW 212155Z 05008KT 10SM OVC043 22/10 A3010
KCNW 212055Z 02006KT 10SM OVC045 20/13 A3010
KCNW 211955Z 03007KT 10SM OVC045 22/13 A3011


Page loaded:  05:07 UTC  |   10:07 PM Pacific  |   11:07 PM Mountain  |   12:07 AM Central  |   01:07 AM Eastern

 

ADVISORIES

FORECASTS

FORECASTS

OBSERVATIONS

USER TOOLS

ABOUT US